createdAt,value
2023-04-04T00:00:45.101Z,3.40
2023-04-04T00:03:13.076Z,3.40
2023-04-04T00:05:41.624Z,3.40
2023-04-04T00:08:09.488Z,3.30
2023-04-04T00:10:37.524Z,3.40
2023-04-04T00:13:07.670Z,3.30
2023-04-04T00:15:36.457Z,3.30
2023-04-04T00:18:04.886Z,3.30
2023-04-04T00:20:33.934Z,3.20
2023-04-04T00:23:01.811Z,3.20
2023-04-04T00:25:29.760Z,3.20
2023-04-04T00:28:00.765Z,3.20
2023-04-04T00:30:31.343Z,3.20
2023-04-04T00:32:59.307Z,3.10
2023-04-04T00:35:27.359Z,3.10
2023-04-04T00:37:55.227Z,3.10
2023-04-04T00:40:23.727Z,3.10
2023-04-04T00:42:51.830Z,3.10
2023-04-04T00:45:19.956Z,3.00
2023-04-04T00:47:51.093Z,3.00
2023-04-04T00:50:19.117Z,3.00
2023-04-04T00:52:47.174Z,3.00
2023-04-04T00:55:15.328Z,3.00
2023-04-04T00:57:43.375Z,2.90
2023-04-04T01:00:13.231Z,2.90
2023-04-04T01:02:41.301Z,2.90
2023-04-04T01:05:11.126Z,2.90
2023-04-04T01:07:39.503Z,2.80
2023-04-04T01:10:08.349Z,2.80
2023-04-04T01:12:38.126Z,2.80
2023-04-04T01:15:06.511Z,2.80
2023-04-04T01:17:34.943Z,2.70
2023-04-04T01:20:08.747Z,2.70
2023-04-04T01:22:39.762Z,2.70
2023-04-04T01:25:08.997Z,2.60
2023-04-04T01:27:38.976Z,2.60
2023-04-04T01:30:08.861Z,2.60
2023-04-04T01:32:44.073Z,2.60
2023-04-04T01:35:23.245Z,2.50
2023-04-04T01:37:59.279Z,2.50
2023-04-04T01:40:35.018Z,2.50
2023-04-04T01:43:04.972Z,2.50
2023-04-04T01:45:33.215Z,2.40
2023-04-04T01:48:01.405Z,2.40
2023-04-04T01:50:29.538Z,2.40
2023-04-04T01:52:57.439Z,2.30
2023-04-04T01:55:26.083Z,2.30
2023-04-04T01:57:53.942Z,2.30
2023-04-04T02:00:23.185Z,2.30
2023-04-04T02:02:51.605Z,2.30
2023-04-04T02:05:19.668Z,2.20
2023-04-04T02:07:50.551Z,2.20
2023-04-04T02:10:18.508Z,2.20
2023-04-04T02:12:46.737Z,2.20
2023-04-04T02:15:15.059Z,2.10
2023-04-04T02:17:48.621Z,2.10
2023-04-04T02:20:19.293Z,2.10
2023-04-04T02:22:52.952Z,2.10
2023-04-04T02:25:21.193Z,2.10
2023-04-04T02:27:54.101Z,2.10
2023-04-04T02:30:22.000Z,2.00
2023-04-04T02:32:51.213Z,2.00
2023-04-04T02:35:19.297Z,2.00
2023-04-04T02:37:48.143Z,2.00
2023-04-04T02:40:16.375Z,2.00
2023-04-04T02:42:45.010Z,1.90
2023-04-04T02:45:14.487Z,1.90
2023-04-04T02:47:43.361Z,1.90
2023-04-04T02:50:13.043Z,1.90
2023-04-04T02:52:40.890Z,1.90
2023-04-04T02:55:09.880Z,1.80
2023-04-04T02:57:37.761Z,1.80
2023-04-04T03:00:07.011Z,1.80
2023-04-04T03:02:35.325Z,1.80
2023-04-04T03:05:03.426Z,1.80
2023-04-04T03:07:32.779Z,1.80
2023-04-04T03:10:00.815Z,1.70
2023-04-04T03:12:28.706Z,1.70
2023-04-04T03:14:57.720Z,1.70
2023-04-04T03:17:26.757Z,1.70
2023-04-04T03:19:54.705Z,1.70
2023-04-04T03:22:22.776Z,1.60
2023-04-04T03:24:52.446Z,1.60
2023-04-04T03:27:20.372Z,1.60
2023-04-04T03:29:48.225Z,1.60
2023-04-04T03:32:16.228Z,1.60
2023-04-04T03:34:44.682Z,1.50
2023-04-04T03:37:12.577Z,1.50
2023-04-04T03:39:40.808Z,1.50
2023-04-04T03:42:10.074Z,1.50
2023-04-04T03:44:41.051Z,1.50
2023-04-04T03:47:09.064Z,1.50
2023-04-04T03:49:37.046Z,1.40
2023-04-04T03:52:05.280Z,1.40
2023-04-04T03:54:33.126Z,1.40
2023-04-04T03:57:01.255Z,1.40
2023-04-04T03:59:30.802Z,1.40
2023-04-04T04:01:58.894Z,1.30
2023-04-04T04:04:26.884Z,1.30
2023-04-04T04:06:54.827Z,1.30
2023-04-04T04:09:22.785Z,1.30
2023-04-04T04:11:50.659Z,1.30
2023-04-04T04:14:18.986Z,1.30
2023-04-04T04:16:48.366Z,1.30
2023-04-04T04:19:16.559Z,1.30
2023-04-04T04:21:44.822Z,1.20
2023-04-04T04:24:12.817Z,1.20
2023-04-04T04:26:40.800Z,1.20
2023-04-04T04:29:08.870Z,1.20
2023-04-04T04:31:36.843Z,1.20
2023-04-04T04:34:08.609Z,1.20
2023-04-04T04:36:36.901Z,1.20
2023-04-04T04:39:05.019Z,1.10
2023-04-04T04:41:33.127Z,1.10
2023-04-04T04:44:00.975Z,1.10
2023-04-04T04:46:28.975Z,1.10
2023-04-04T04:48:56.992Z,1.10
2023-04-04T04:51:27.447Z,1.10
2023-04-04T04:53:55.428Z,1.10
2023-04-04T04:56:23.403Z,1.10
2023-04-04T04:58:52.492Z,1.10
2023-04-04T05:01:20.787Z,1.00
2023-04-04T05:03:49.470Z,1.00
2023-04-04T05:06:18.654Z,1.00
2023-04-04T05:08:48.016Z,1.00
2023-04-04T05:11:15.941Z,1.00
2023-04-04T05:13:44.905Z,1.00
2023-04-04T05:16:13.100Z,1.00
2023-04-04T05:18:41.129Z,1.00
2023-04-04T05:21:09.269Z,1.00
2023-04-04T05:23:37.381Z,1.00
2023-04-04T05:26:07.493Z,1.00
2023-04-04T05:28:35.943Z,1.00
2023-04-04T05:31:03.869Z,1.00
2023-04-04T05:33:31.763Z,1.00
2023-04-04T05:36:01.120Z,1.00
2023-04-04T05:38:29.513Z,1.10
2023-04-04T05:40:57.482Z,1.10
2023-04-04T05:43:27.225Z,1.20
2023-04-04T05:45:55.135Z,1.20
2023-04-04T05:48:23.056Z,1.20
2023-04-04T05:50:51.089Z,1.30
2023-04-04T05:53:19.028Z,1.30
2023-04-04T05:55:46.931Z,1.40
2023-04-04T05:58:14.832Z,1.40
2023-04-04T06:00:44.198Z,1.50
2023-04-04T06:03:12.721Z,1.50
2023-04-04T06:05:40.987Z,1.60
2023-04-04T06:08:09.439Z,1.60
2023-04-04T06:10:37.608Z,1.70
2023-04-04T06:13:06.035Z,1.70
2023-04-04T06:15:33.959Z,1.80
2023-04-04T06:18:04.718Z,1.80
2023-04-04T06:20:32.653Z,1.90
2023-04-04T06:23:03.952Z,1.90
2023-04-04T06:25:32.232Z,2.00
2023-04-04T06:28:00.726Z,2.00
2023-04-04T06:30:28.684Z,2.00
2023-04-04T06:32:56.653Z,2.10
2023-04-04T06:35:25.994Z,2.10
2023-04-04T06:37:56.245Z,2.20
2023-04-04T06:40:24.322Z,2.20
2023-04-04T06:42:55.092Z,2.20
2023-04-04T06:45:23.562Z,2.30
2023-04-04T06:47:53.558Z,2.30
2023-04-04T06:52:52.692Z,2.40
2023-04-04T06:55:20.677Z,2.40
2023-04-04T06:57:48.594Z,2.50
2023-04-04T07:00:17.161Z,2.60
2023-04-04T07:02:45.343Z,2.60
2023-04-04T07:05:14.379Z,2.70
2023-04-04T07:07:42.317Z,2.80
2023-04-04T07:10:12.143Z,2.80
2023-04-04T07:12:40.029Z,2.90
2023-04-04T07:15:09.213Z,2.90
2023-04-04T07:17:38.997Z,3.00
2023-04-04T07:20:08.418Z,3.00
2023-04-04T07:22:38.480Z,3.10
2023-04-04T07:25:07.566Z,3.10
2023-04-04T07:27:37.050Z,3.20
2023-04-04T07:30:05.367Z,3.20
2023-04-04T07:32:33.237Z,3.30
2023-04-04T07:35:01.366Z,3.40
2023-04-04T07:37:29.314Z,3.50
2023-04-04T07:39:57.245Z,3.60
2023-04-04T07:42:27.833Z,3.60
2023-04-04T07:44:57.113Z,3.70
2023-04-04T07:47:25.310Z,3.80
2023-04-04T07:49:53.218Z,3.90
2023-04-04T07:52:21.476Z,3.90
2023-04-04T07:54:49.773Z,4.00
2023-04-04T07:57:17.667Z,4.00
2023-04-04T07:59:46.001Z,4.10
2023-04-04T08:02:15.289Z,4.20
2023-04-04T08:04:43.237Z,4.30
2023-04-04T08:07:11.283Z,4.40
2023-04-04T08:09:39.182Z,4.50
2023-04-04T08:12:07.844Z,4.60
2023-04-04T08:14:35.819Z,4.70
2023-04-04T08:17:03.694Z,4.80
2023-04-04T08:19:32.973Z,4.90
2023-04-04T08:22:01.541Z,5.00
2023-04-04T08:24:30.723Z,5.20
2023-04-04T08:27:05.226Z,5.20
2023-04-04T08:29:34.503Z,5.30
2023-04-04T08:32:02.497Z,5.40
2023-04-04T08:34:32.051Z,5.50
2023-04-04T08:37:00.588Z,5.60
2023-04-04T08:39:28.489Z,5.70
2023-04-04T08:42:03.475Z,5.70
2023-04-04T08:44:32.589Z,5.70
2023-04-04T08:47:01.625Z,5.70
2023-04-04T08:49:35.005Z,5.80
2023-04-04T08:52:04.737Z,5.80
2023-04-04T08:54:36.198Z,5.90
2023-04-04T08:57:04.342Z,6.10
2023-04-04T08:59:32.798Z,6.20
2023-04-04T09:02:06.241Z,6.30
2023-04-04T09:04:36.443Z,6.50
2023-04-04T09:07:05.736Z,6.60
2023-04-04T09:09:34.398Z,6.70
2023-04-04T09:12:03.426Z,6.80
2023-04-04T09:14:32.374Z,6.90
2023-04-04T09:17:00.393Z,7.10
2023-04-04T09:19:28.494Z,7.20
2023-04-04T09:21:57.896Z,7.30
2023-04-04T09:24:26.467Z,7.40
2023-04-04T09:26:55.273Z,7.50
2023-04-04T09:29:23.310Z,7.60
2023-04-04T09:31:51.731Z,7.80
2023-04-04T09:34:21.744Z,8.10
2023-04-04T09:36:49.913Z,8.70
2023-04-04T09:39:23.182Z,9.30
2023-04-04T09:41:51.259Z,10.20
2023-04-04T09:44:19.352Z,11.40
2023-04-04T09:46:51.961Z,13.10
2023-04-04T09:49:22.759Z,15.20
2023-04-04T09:51:53.898Z,17.60
2023-04-04T09:54:29.722Z,19.70
2023-04-04T09:56:58.341Z,21.90
2023-04-04T09:59:26.478Z,23.90
2023-04-04T10:01:56.417Z,25.60
2023-04-04T10:04:27.256Z,27.10
2023-04-04T10:06:55.764Z,28.40
2023-04-04T10:09:24.234Z,29.60
2023-04-04T10:12:09.738Z,30.70
2023-04-04T10:14:37.882Z,31.20
2023-04-04T10:17:10.434Z,31.40
2023-04-04T10:19:39.338Z,32.00
2023-04-04T10:22:07.388Z,32.50
2023-04-04T10:24:35.631Z,32.70
2023-04-04T10:27:05.043Z,33.10
2023-04-04T10:29:33.887Z,33.30
2023-04-04T10:32:06.432Z,33.40
2023-04-04T10:34:42.181Z,33.50
2023-04-04T10:37:14.320Z,33.70
2023-04-04T10:39:47.597Z,33.90
2023-04-04T10:42:17.464Z,34.10
2023-04-04T10:44:46.974Z,34.10
2023-04-04T10:47:16.559Z,34.10
2023-04-04T10:49:46.247Z,34.00
2023-04-04T10:52:17.596Z,34.10
2023-04-04T10:54:47.840Z,34.10
2023-04-04T10:57:18.285Z,34.20
2023-04-04T10:59:59.695Z,34.20
2023-04-04T11:02:45.554Z,34.20
2023-04-04T11:05:16.031Z,34.10
2023-04-04T11:07:57.227Z,34.20
2023-04-04T11:10:37.177Z,34.20
2023-04-04T11:13:14.352Z,34.10
2023-04-04T11:15:55.802Z,34.10
2023-04-04T11:18:45.509Z,34.00
2023-04-04T11:21:18.360Z,33.80
2023-04-04T11:24:19.433Z,33.60
2023-04-04T11:26:48.640Z,33.40
2023-04-04T11:29:51.443Z,32.80
2023-04-04T11:32:34.628Z,31.80
2023-04-04T11:35:06.352Z,30.50
2023-04-04T11:37:44.596Z,29.20
2023-04-04T11:40:13.949Z,27.80
2023-04-04T11:42:43.311Z,26.30
2023-04-04T11:45:19.142Z,24.90
2023-04-04T11:47:50.504Z,23.50
2023-04-04T11:50:20.798Z,22.10
2023-04-04T11:52:48.623Z,21.00
2023-04-04T11:55:17.653Z,19.90
2023-04-04T11:57:47.494Z,18.80
2023-04-04T12:00:29.993Z,17.90
2023-04-04T12:02:59.710Z,16.90
2023-04-04T12:05:29.078Z,16.20
2023-04-04T12:07:57.348Z,15.50
2023-04-04T12:10:25.620Z,14.90
2023-04-04T12:12:56.977Z,14.30
2023-04-04T12:15:24.880Z,13.90
2023-04-04T12:17:52.766Z,13.50
2023-04-04T12:20:25.034Z,13.20
2023-04-04T12:22:53.324Z,12.90
2023-04-04T12:25:23.907Z,12.60
2023-04-04T12:27:53.491Z,12.50
2023-04-04T12:30:22.542Z,12.30
2023-04-04T12:32:51.737Z,12.10
2023-04-04T12:35:19.807Z,12.00
2023-04-04T12:38:02.749Z,11.90
2023-04-04T12:40:33.203Z,11.90
2023-04-04T12:43:02.054Z,11.80
2023-04-04T12:45:30.716Z,11.80
2023-04-04T12:47:58.974Z,11.70
2023-04-04T12:50:29.393Z,11.70
2023-04-04T12:53:18.458Z,11.70
2023-04-04T12:55:52.040Z,11.70
2023-04-04T12:58:22.842Z,11.70
2023-04-04T13:00:53.509Z,11.90
2023-04-04T13:03:23.060Z,12.00
2023-04-04T13:05:52.438Z,12.10
2023-04-04T13:08:20.754Z,12.20
2023-04-04T13:11:04.833Z,12.30
2023-04-04T13:13:35.321Z,12.30
2023-04-04T13:16:04.398Z,12.40
2023-04-04T13:18:38.605Z,12.50
2023-04-04T13:21:08.589Z,12.60
2023-04-04T13:23:39.401Z,12.70
2023-04-04T13:26:10.120Z,12.80
2023-04-04T13:28:38.065Z,12.90
2023-04-04T13:31:06.982Z,13.00
2023-04-04T13:33:35.620Z,13.00
2023-04-04T13:36:03.694Z,13.10
2023-04-04T13:38:32.156Z,13.10
2023-04-04T13:41:00.570Z,13.10
2023-04-04T13:43:29.964Z,13.30
2023-04-04T13:45:58.004Z,13.40
2023-04-04T13:48:26.403Z,13.50
2023-04-04T13:50:55.408Z,13.50
2023-04-04T13:53:23.536Z,13.60
2023-04-04T13:58:22.760Z,13.70
2023-04-04T14:00:52.572Z,13.80
2023-04-04T14:03:20.752Z,13.80
2023-04-04T14:05:48.759Z,13.80
2023-04-04T14:08:16.914Z,13.70
2023-04-04T14:10:44.765Z,13.60
2023-04-04T14:13:12.744Z,13.70
2023-04-04T14:15:41.603Z,13.80
2023-04-04T14:18:12.182Z,13.90
2023-04-04T14:20:40.217Z,14.00
2023-04-04T14:23:08.621Z,14.10
2023-04-04T14:25:36.959Z,14.30
2023-04-04T14:28:04.857Z,14.40
2023-04-04T14:30:32.837Z,14.50
2023-04-04T14:33:00.854Z,14.50
2023-04-04T14:35:30.276Z,14.40
2023-04-04T14:37:58.100Z,14.40
2023-04-04T14:40:26.029Z,14.40
2023-04-04T14:42:53.924Z,14.50
2023-04-04T14:45:22.454Z,14.50
2023-04-04T14:47:55.310Z,14.60
2023-04-04T14:50:23.186Z,14.60
2023-04-04T14:52:52.967Z,14.70
2023-04-04T14:55:21.990Z,14.70
2023-04-04T14:58:02.097Z,14.80
2023-04-04T15:00:30.813Z,14.80
2023-04-04T15:02:59.364Z,14.90
2023-04-04T15:05:27.378Z,14.90
2023-04-04T15:07:56.699Z,15.00
2023-04-04T15:10:24.732Z,15.10
2023-04-04T15:12:52.614Z,15.20
2023-04-04T15:15:22.243Z,15.20
2023-04-04T15:17:51.978Z,15.20
2023-04-04T15:20:19.982Z,15.00
2023-04-04T15:22:47.880Z,14.90
2023-04-04T15:25:17.236Z,14.70
2023-04-04T15:27:45.249Z,14.50
2023-04-04T15:30:14.798Z,14.30
2023-04-04T15:32:42.772Z,14.30
2023-04-04T15:35:18.136Z,14.20
2023-04-04T15:37:46.053Z,14.10
2023-04-04T15:40:14.098Z,14.10
2023-04-04T15:42:43.649Z,14.00
2023-04-04T15:45:13.195Z,14.00
2023-04-04T15:47:41.462Z,13.80
2023-04-04T15:50:11.069Z,13.70
2023-04-04T15:52:39.052Z,13.60
2023-04-04T15:55:12.532Z,13.60
2023-04-04T15:57:42.676Z,13.50
2023-04-04T16:00:14.069Z,13.30
2023-04-04T16:02:44.285Z,13.20
2023-04-04T16:05:12.419Z,13.10
2023-04-04T16:07:40.379Z,12.90
2023-04-04T16:10:09.438Z,12.80
2023-04-04T16:12:37.293Z,12.60
2023-04-04T16:15:06.989Z,12.50
2023-04-04T16:17:36.324Z,12.30
2023-04-04T16:20:04.487Z,12.10
2023-04-04T16:22:33.198Z,12.00
2023-04-04T16:25:01.167Z,11.80
2023-04-04T16:27:29.044Z,11.70
2023-04-04T16:29:56.932Z,11.60
2023-04-04T16:32:25.017Z,11.40
2023-04-04T16:34:54.366Z,11.30
2023-04-04T16:37:23.293Z,11.20
2023-04-04T16:39:52.038Z,11.10
2023-04-04T16:42:20.263Z,11.00
2023-04-04T16:44:48.191Z,10.90
2023-04-04T16:47:16.361Z,10.80
2023-04-04T16:49:44.763Z,10.70
2023-04-04T16:52:14.878Z,10.60
2023-04-04T16:54:43.218Z,10.50
2023-04-04T16:57:11.616Z,10.40
2023-04-04T16:59:39.592Z,10.30
2023-04-04T17:02:08.908Z,10.20
2023-04-04T17:04:39.652Z,10.10
2023-04-04T17:07:09.775Z,10.00
2023-04-04T17:09:39.160Z,9.90
2023-04-04T17:12:07.469Z,9.80
2023-04-04T17:14:35.755Z,9.70
2023-04-04T17:17:05.298Z,9.70
2023-04-04T17:19:35.212Z,9.60
2023-04-04T17:22:03.913Z,9.60
2023-04-04T17:24:31.889Z,9.50
2023-04-04T17:27:03.473Z,9.30
2023-04-04T17:29:31.331Z,9.30
2023-04-04T17:31:59.783Z,9.20
2023-04-04T17:34:28.142Z,9.10
2023-04-04T17:36:56.735Z,9.10
2023-04-04T17:39:24.852Z,9.00
2023-04-04T17:41:53.016Z,8.90
2023-04-04T17:44:22.943Z,8.90
2023-04-04T17:46:50.956Z,8.80
2023-04-04T17:49:19.996Z,8.70
2023-04-04T17:51:49.076Z,8.70
2023-04-04T17:54:17.548Z,8.70
2023-04-04T17:56:46.894Z,8.60
2023-04-04T17:59:16.435Z,8.50
2023-04-04T18:01:46.742Z,8.50
2023-04-04T18:04:14.722Z,8.50
2023-04-04T18:06:42.817Z,8.50
2023-04-04T18:09:11.108Z,8.40
2023-04-04T18:11:39.977Z,8.30
2023-04-04T18:14:08.526Z,8.30
2023-04-04T18:16:40.283Z,8.20
2023-04-04T18:19:11.238Z,8.20
2023-04-04T18:21:39.308Z,8.10
2023-04-04T18:24:10.976Z,8.10
2023-04-04T18:26:38.927Z,8.10
2023-04-04T18:29:07.181Z,8.00
2023-04-04T18:31:35.226Z,8.00
2023-04-04T18:34:03.322Z,7.90
2023-04-04T18:36:32.637Z,7.90
2023-04-04T18:39:01.120Z,7.90
2023-04-04T18:41:29.149Z,7.80
2023-04-04T18:43:57.195Z,7.80
2023-04-04T18:46:25.167Z,7.80
2023-04-04T18:48:53.137Z,7.70
2023-04-04T18:51:22.342Z,7.70
2023-04-04T18:53:53.002Z,7.70
2023-04-04T18:56:21.576Z,7.70
2023-04-04T18:58:49.748Z,7.60
2023-04-04T19:01:17.708Z,7.60
2023-04-04T19:03:47.480Z,7.60
2023-04-04T19:06:16.230Z,7.60
2023-04-04T19:08:44.917Z,7.50
2023-04-04T19:11:15.628Z,7.50
2023-04-04T19:13:43.640Z,7.50
2023-04-04T19:16:11.605Z,7.50
2023-04-04T19:18:39.531Z,7.50
2023-04-04T19:21:08.843Z,7.40
2023-04-04T19:23:38.094Z,7.40
2023-04-04T19:26:06.611Z,7.40
2023-04-04T19:28:36.489Z,7.30
2023-04-04T19:31:10.581Z,7.30
2023-04-04T19:33:39.144Z,7.30
2023-04-04T19:36:10.826Z,7.30
2023-04-04T19:38:40.783Z,7.30
2023-04-04T19:41:12.749Z,7.20
2023-04-04T19:43:44.996Z,7.20
2023-04-04T19:46:14.850Z,7.20
2023-04-04T19:48:45.835Z,7.10
2023-04-04T19:51:43.096Z,7.10
2023-04-04T19:54:15.875Z,7.10
2023-04-04T19:56:47.091Z,7.10
2023-04-04T19:59:53.631Z,7.10
2023-04-04T20:02:50.844Z,7.10
2023-04-04T20:05:48.648Z,7.10
2023-04-04T20:08:17.264Z,7.10
2023-04-04T20:10:45.521Z,7.00
2023-04-04T20:13:14.281Z,7.00
2023-04-04T20:16:01.869Z,7.00
2023-04-04T20:18:32.825Z,7.00
2023-04-04T20:21:03.762Z,7.00
2023-04-04T20:23:32.749Z,7.00
2023-04-04T20:26:08.237Z,7.00
2023-04-04T20:28:36.940Z,7.00
2023-04-04T20:31:12.039Z,7.00
2023-04-04T20:33:42.086Z,7.00
2023-04-04T20:36:31.298Z,7.00
2023-04-04T20:38:59.598Z,7.00
2023-04-04T20:41:27.827Z,7.00
2023-04-04T20:43:57.090Z,7.00
2023-04-04T20:46:26.458Z,7.00
2023-04-04T20:48:57.195Z,7.00
2023-04-04T20:51:30.893Z,7.00
2023-04-04T20:54:00.685Z,6.90
2023-04-04T20:56:47.540Z,6.90
2023-04-04T20:59:35.380Z,6.90
2023-04-04T21:02:11.776Z,6.80
2023-04-04T21:04:41.847Z,6.80
2023-04-04T21:07:09.839Z,6.70
2023-04-04T21:09:37.715Z,6.70
2023-04-04T21:12:07.775Z,6.70
2023-04-04T21:14:37.497Z,6.70
2023-04-04T21:17:07.708Z,6.60
2023-04-04T21:19:35.617Z,6.60
2023-04-04T21:22:07.711Z,6.60
2023-04-04T21:24:36.928Z,6.60
2023-04-04T21:27:07.602Z,6.50
2023-04-04T21:29:35.457Z,6.50
2023-04-04T21:32:03.885Z,6.50
2023-04-04T21:34:32.626Z,6.50
2023-04-04T21:37:02.905Z,6.40
2023-04-04T21:39:32.213Z,6.40
2023-04-04T21:42:03.260Z,6.40
2023-04-04T21:44:32.987Z,6.40
2023-04-04T21:47:00.898Z,6.40
2023-04-04T21:49:29.609Z,6.40
2023-04-04T21:51:57.524Z,6.30
2023-04-04T21:54:25.362Z,6.30
2023-04-04T21:56:54.862Z,6.30
2023-04-04T21:59:22.737Z,6.20
2023-04-04T22:01:51.759Z,6.20
2023-04-04T22:04:19.761Z,6.20
2023-04-04T22:06:47.659Z,6.10
2023-04-04T22:09:15.934Z,6.10
2023-04-04T22:11:45.283Z,6.00
2023-04-04T22:14:17.454Z,6.00
2023-04-04T22:16:45.915Z,5.90
2023-04-04T22:19:13.909Z,5.90
2023-04-04T22:21:48.029Z,5.90
2023-04-04T22:24:17.777Z,5.80
2023-04-04T22:26:46.477Z,5.80
2023-04-04T22:29:15.911Z,5.70
2023-04-04T22:31:43.940Z,5.70
2023-04-04T22:34:14.663Z,5.60
2023-04-04T22:36:43.736Z,5.60
2023-04-04T22:39:12.032Z,5.60
2023-04-04T22:41:39.914Z,5.60
2023-04-04T22:44:07.886Z,5.50
2023-04-04T22:46:37.041Z,5.40
2023-04-04T22:49:08.736Z,5.40
2023-04-04T22:51:43.990Z,5.40
2023-04-04T22:54:14.113Z,5.30
2023-04-04T22:56:42.232Z,5.30
2023-04-04T22:59:10.212Z,5.20
2023-04-04T23:01:39.732Z,5.20
2023-04-04T23:04:07.965Z,5.10
2023-04-04T23:06:38.408Z,5.10
2023-04-04T23:09:07.614Z,5.10
2023-04-04T23:11:35.587Z,5.00
2023-04-04T23:14:08.387Z,5.00
2023-04-04T23:16:36.481Z,5.00
2023-04-04T23:19:05.944Z,4.90
2023-04-04T23:21:33.957Z,4.80
2023-04-04T23:24:01.829Z,4.80
2023-04-04T23:26:29.784Z,4.80
2023-04-04T23:28:57.730Z,4.80
2023-04-04T23:31:25.790Z,4.70
2023-04-04T23:33:53.842Z,4.70
2023-04-04T23:36:23.179Z,4.60
2023-04-04T23:38:51.086Z,4.60
2023-04-04T23:41:18.986Z,4.50
2023-04-04T23:43:47.077Z,4.50
2023-04-04T23:46:15.452Z,4.50
2023-04-04T23:48:43.454Z,4.50
2023-04-04T23:51:11.652Z,4.40
2023-04-04T23:53:41.288Z,4.40
2023-04-04T23:56:09.353Z,4.40
2023-04-04T23:58:38.736Z,4.30
